Home > Products > Valid Products > MTR

000
SAUS44 KEWX 251152
MTRATT
METAR KATT 251151Z AUTO 00000KT 3SM BR FEW011 22/22 A2979 RMK AO2
TSE02 SLP077 60004 70026 T02220217 10239 20222 51001





000
SAUS44 KEWX 251152
MTRATT
METAR KATT 251151Z AUTO 00000KT 3SM BR FEW011 22/22 A2979 RMK AO2
TSE02 SLP077 60004 70026 T02220217 10239 20222 51001





000
SAUS44 KEWX 251125
MTRATT
SPECI KATT 251124Z AUTO 00000KT 2SM BR CLR 22/22 A2979 RMK AO2 TSE02
T02220217





000
SAUS44 KEWX 251125
MTRATT
SPECI KATT 251124Z AUTO 00000KT 2SM BR CLR 22/22 A2979 RMK AO2 TSE02
T02220217





000
SAUS44 KEWX 251109
MTRATT
SPECI KATT 251108Z AUTO 00000KT 4SM BR FEW018 FEW095 23/22 A2980 RMK
AO2 TSE02 T02280217





000
SAUS44 KEWX 251052
MTRATT
METAR KATT 251051Z AUTO 21003KT 4SM TS BR FEW095 SCT110 23/22 A2979
RMK AO2 RAB0956E16 SLP075 P0004 T02280217





000
SAUS44 KEWX 251052
MTRATT
METAR KATT 251051Z AUTO 21003KT 4SM TS BR FEW095 SCT110 23/22 A2979
RMK AO2 RAB0956E16 SLP075 P0004 T02280217





000
SAUS44 KEWX 250952
MTRATT
METAR KATT 250951Z AUTO 27005KT 5SM TS BR FEW085 SCT110 23/22 A2979
RMK AO2 TSB14E28B32B35 PRESRR SLP074 T02280222





000
SAUS44 KEWX 250902
MTRATT
SPECI KATT 250901Z AUTO 29003KT 5SM TS BR CLR 23/22 A2975 RMK AO2
T02330222





000
SAUS44 KEWX 250854
MTRATT
METAR KATT 250851Z AUTO 20003KT 4SM BR CLR 23/22 A2975 RMK AO2
SLP061 T02280222 58004





000
SAUS44 KEWX 250823
MTRATT
SPECI KATT 250822Z AUTO 00000KT 2 1/2SM BR FEW009 FEW020 SCT024
23/22 A2977 RMK AO2 T02280222





000
SAUS44 KEWX 250812
MTRATT
SPECI KATT 250810Z AUTO 00000KT 4SM BR SCT010 SCT019 SCT024 23/22
A2976 RMK AO2 T02330222





000
SAUS44 KEWX 250752
MTRATT
METAR KATT 250751Z AUTO 00000KT 4SM BR OVC011 23/23 A2976 RMK AO2
SLP066 T02330228





000
SAUS44 KEWX 250706
MTRATT
SPECI KATT 250705Z AUTO 00000KT 4SM BR BKN012 BKN018 OVC025 23/23
A2978 RMK AO2 T02330228





000
SAUS44 KEWX 250706
MTRATT
SPECI KATT 250705Z AUTO 00000KT 4SM BR BKN012 BKN018 OVC025 23/23
A2978 RMK AO2 T02330228





000
SAUS44 KEWX 250653
MTRATT
METAR KATT 250651Z AUTO 00000KT 3SM BR SCT013 SCT020 BKN025 23/23
A2978 RMK AO2 SLP072 T02330228





000
SAUS44 KEWX 250645
MTRATT
SPECI KATT 250644Z AUTO 00000KT 3SM BR BKN023 23/23 A2977 RMK AO2
T02330228





000
SAUS44 KEWX 250645
MTRATT
SPECI KATT 250644Z AUTO 00000KT 3SM BR BKN023 23/23 A2977 RMK AO2
T02330228





000
SAUS44 KEWX 250552
MTRATT
METAR KATT 250551Z AUTO 00000KT 4SM BR CLR 23/23 A2976 RMK AO2
SLP068 60000 T02330228 10272 20233 402940206 53005





000
SAUS44 KEWX 250552
MTRATT
METAR KATT 250551Z AUTO 00000KT 4SM BR CLR 23/23 A2976 RMK AO2
SLP068 60000 T02330228 10272 20233 402940206 53005





000
SAUS44 KEWX 250452
MTRATT
METAR KATT 250451Z AUTO 00000KT 6SM BR CLR 24/23 A2975 RMK AO2
SLP061 T02440228





000
SAUS44 KEWX 250352
MTRATT
METAR KATT 250351Z AUTO 00000KT 6SM BR CLR 24/23 A2976 RMK AO2 RAE06
SLP064 P0000 T02440233





000
SAUS44 KEWX 250352
MTRATT
METAR KATT 250351Z AUTO 00000KT 6SM BR CLR 24/23 A2976 RMK AO2 RAE06
SLP064 P0000 T02440233





000
SAUS44 KEWX 250252
MTRATT
METAR KATT 250251Z AUTO VRB05KT 6SM -RA BR FEW090 BKN120 25/23 A2975
RMK AO2 RAB25 PRESFR SLP063 P0000 60000 T02500233 53016





000
SAUS44 KEWX 250252
MTRATT
METAR KATT 250251Z AUTO VRB05KT 6SM -RA BR FEW090 BKN120 25/23 A2975
RMK AO2 RAB25 PRESFR SLP063 P0000 60000 T02500233 53016





000
SAUS44 KEWX 250152
MTRATT
METAR KATT 250151Z AUTO 00000KT 10SM SCT024 26/23 A2974 RMK AO2
SLP058 T02610228





000
SAUS44 KEWX 250052
MTRATT
METAR KATT 250051Z AUTO 00000KT 10SM BKN027 OVC036 27/23 A2971 RMK
AO2 SLP049 T02670228





000
SAUS44 KEWX 250019
MTRATT
SPECI KATT 250018Z AUTO 20004KT 9SM BKN028 OVC034 27/23 A2970 RMK
AO2 T02670228





000
SAUS44 KEWX 242352
MTRATT
METAR KATT 242351Z AUTO VRB04KT 9SM SCT028 BKN043 27/22 A2970 RMK
AO2 SLP046 T02720222 10294 20244 56013





000
SAUS44 KEWX 242352
MTRATT
METAR KATT 242351Z AUTO VRB04KT 9SM SCT028 BKN043 27/22 A2970 RMK
AO2 SLP046 T02720222 10294 20244 56013





000
SAUS44 KEWX 242306
MTRATT
SPECI KATT 242305Z AUTO 18007G14KT 10SM BKN029 OVC036 28/23 A2970
RMK AO2 T02780228





000
SAUS44 KEWX 242306
MTRATT
SPECI KATT 242305Z AUTO 18007G14KT 10SM BKN029 OVC036 28/23 A2970
RMK AO2 T02780228





000
SAUS44 KEWX 242252
MTRATT
METAR KATT 242251Z AUTO VRB05KT 9SM BKN030 BKN036 OVC045 28/23 A2971
RMK AO2 SLP047 T02830228





000
SAUS44 KEWX 242152
MTRATT
METAR KATT 242151Z AUTO VRB04KT 9SM BKN036 BKN046 28/23 A2972 RMK
AO2 SLP050 T02830228





000
SAUS44 KEWX 242053
MTRATT
METAR KATT 242051Z AUTO 17008G18KT 9SM BKN033 BKN041 OVC048 28/22
A2974 RMK AO2 SLP058 T02780222 56034





000
SAUS44 KEWX 242001
MTRATT
SPECI KATT 242000Z AUTO 18007G18KT 8SM SCT023 BKN031 OVC038 27/22
A2977 RMK AO2 T02720222





000
SAUS44 KEWX 241952
MTRATT
METAR KATT 241951Z AUTO 18009G15KT 150V220 9SM BKN023 BKN031 OVC046
27/23 A2977 RMK AO2 SLP068 T02720228





000
SAUS44 KEWX 241952
MTRATT
METAR KATT 241951Z AUTO 18009G15KT 150V220 9SM BKN023 BKN031 OVC046
27/23 A2977 RMK AO2 SLP068 T02720228





000
SAUS44 KEWX 241929
MTRATT
SPECI KATT 241928Z AUTO 17008G18KT 9SM SCT022 BKN026 BKN040 27/23
A2978 RMK AO2 T02670228





000
SAUS44 KEWX 241929
MTRATT
SPECI KATT 241928Z AUTO 17008G18KT 9SM SCT022 BKN026 BKN040 27/23
A2978 RMK AO2 T02670228





000
SAUS44 KEWX 241900
MTRATT
SPECI KATT 241858Z AUTO VRB06KT 9SM SCT020 SCT029 BKN037 27/23 A2979
RMK AO2 T02670228





000
SAUS44 KEWX 241852
MTRATT
METAR KATT 241851Z AUTO 18006KT 9SM SCT018 BKN026 OVC038 27/23 A2980
RMK AO2 SLP079 T02670228





000
SAUS44 KEWX 241813
MTRATT
SPECI KATT 241812Z AUTO 17007KT 9SM SCT016 BKN023 BKN045 26/23 A2983
RMK AO2 T02610228





000
SAUS44 KEWX 241813
MTRATT
SPECI KATT 241812Z AUTO 17007KT 9SM SCT016 BKN023 BKN045 26/23 A2983
RMK AO2 T02610228





000
SAUS44 KEWX 241753
MTRATT
METAR KATT 241751Z AUTO VRB06KT 9SM BKN014 BKN026 OVC050 24/22 A2984
RMK AO2 SLP093 60022 T02440222 10244 20206 58009





000
SAUS44 KEWX 241652
MTRATT
METAR KATT 241651Z AUTO 15009G14KT 10SM BKN010 OVC016 24/22 A2986
RMK AO2 SLP101 T02390217





000
SAUS44 KEWX 241603
MTRATT
SPECI KATT 241602Z AUTO VRB06G16KT 10SM BKN013 BKN019 OVC034 23/21
A2987 RMK AO2 T02330211





000
SAUS44 KEWX 241603
MTRATT
SPECI KATT 241602Z AUTO VRB06G16KT 10SM BKN013 BKN019 OVC034 23/21
A2987 RMK AO2 T02330211





000
SAUS44 KEWX 241552
MTRATT
METAR KATT 241551Z AUTO 16007KT 10SM FEW011 BKN018 OVC034 24/21
A2987 RMK AO2 SLP103 T02390211





000
SAUS44 KEWX 241547
MTRATT
SPECI KATT 241546Z AUTO VRB04G14KT 10SM FEW010 SCT020 BKN034 24/21
A2987 RMK AO2





000
SAUS44 KEWX 241536
MTRATT
SPECI KATT 241535Z AUTO 15010G15KT 10SM BKN010 BKN034 24/21 A2987
RMK AO2 CIG 007V014 T02390211





000
SAUS44 KEWX 241453
MTRATT
METAR KATT 241451Z AUTO 14007KT 6SM BR OVC005 22/22 A2985 RMK AO2
CIG 005V008 SLP099 60022 T02220217 55018





000
SAUS44 KEWX 241453
MTRATT
METAR KATT 241451Z AUTO 14007KT 6SM BR OVC005 22/22 A2985 RMK AO2
CIG 005V008 SLP099 60022 T02220217 55018





000
SAUS44 KEWX 241435
MTRATT
SPECI KATT 241434Z AUTO 14005KT 5SM BR BKN006 23/22 A2985 RMK AO2
T02280217





000
SAUS44 KEWX 241435
MTRATT
SPECI KATT 241434Z AUTO 14005KT 5SM BR BKN006 23/22 A2985 RMK AO2
T02280217





000
SAUS44 KEWX 241417
MTRATT
SPECI KATT 241416Z AUTO 10007KT 6SM BR FEW005 SCT100 SCT120 22/21
A2984 RMK AO2 T02220211





000
SAUS44 KEWX 241352
MTRATT
METAR KATT 241351Z AUTO VRB04KT 4SM BR BKN090 OVC110 21/21 A2985 RMK
AO2 RAE32 SLP098 P0003 T02110206





000
SAUS44 KEWX 241330
MTRATT
SPECI KATT 241329Z AUTO VRB03KT 5SM -RA BR FEW006 OVC090 21/21 A2987
RMK AO2 P0003 T02110206





000
SAUS44 KEWX 241252
MTRATT
METAR KATT 241251Z AUTO 10006KT 3SM RA BR FEW011 BKN080 OVC100 21/21
A2989 RMK AO2 TSE34 PRESFR SLP110 P0019 T02060206





000
SAUS44 KEWX 241252
MTRATT
METAR KATT 241251Z AUTO 10006KT 3SM RA BR FEW011 BKN080 OVC100 21/21
A2989 RMK AO2 TSE34 PRESFR SLP110 P0019 T02060206





000
SAUS44 KEWX 241243
MTRATT
SPECI KATT 241241Z AUTO 15006KT 4SM RA BR SCT009 SCT055 OVC090 21/21
A2992 RMK AO2 TSE34 P0015 T02110206





000
SAUS44 KEWX 241243
MTRATT
SPECI KATT 241241Z AUTO 15006KT 4SM RA BR SCT009 SCT055 OVC090 21/21
A2992 RMK AO2 TSE34 P0015 T02110206





000
SAUS44 KEWX 241235
MTRATT
SPECI KATT 241234Z AUTO VRB04KT 3SM RA BR SCT007 BKN018 OVC100 21/21
A2991 RMK AO2 TSE34 P0014 T02110206





000
SAUS44 KEWX 241235
MTRATT
SPECI KATT 241234Z AUTO VRB04KT 3SM RA BR SCT007 BKN018 OVC100 21/21
A2991 RMK AO2 TSE34 P0014 T02110206





000
SAUS44 KEWX 241201
MTRATT
SPECI KATT 241200Z AUTO VRB03KT 1 1/2SM +TSRA BR BKN005 BKN048 22/22
A2992 RMK AO2 P0003 T02220217





000
SAUS44 KEWX 241201
MTRATT
SPECI KATT 241200Z AUTO VRB03KT 1 1/2SM +TSRA BR BKN005 BKN048 22/22
A2992 RMK AO2 P0003 T02220217





000
SAUS44 KEWX 241152
MTRATT
METAR KATT 241151Z AUTO VRB03KT 1 1/4SM TSRA BR BKN004 BKN021 OVC070
22/22 A2991 RMK AO2 TSB1052B1053B25B31 SLP116 P0020 60021 70021
T02220222 10239 20222 53007





000
SAUS44 KEWX 241152
MTRATT
METAR KATT 241151Z AUTO VRB03KT 1 1/4SM TSRA BR BKN004 BKN021 OVC070
22/22 A2991 RMK AO2 TSB1052B1053B25B31 SLP116 P0020 60021 70021
T02220222 10239 20222 53007





000
SAUS44 KEWX 241135
MTRATT
SPECI KATT 241133Z AUTO 16005KT 1SM +TSRA BR OVC004 22/22 A2989 RMK
AO2 TSB1052B1053B25B31 CIG 003V008 P0007 T02220222





000
SAUS44 KEWX 241135
MTRATT
SPECI KATT 241133Z AUTO 16005KT 1SM +TSRA BR OVC004 22/22 A2989 RMK
AO2 TSB1052B1053B25B31 CIG 003V008 P0007 T02220222





000
SAUS44 KEWX 241119
MTRATT
SPECI KATT 241117Z AUTO VRB03KT 2 1/2SM -TSRA BR OVC004 23/22 A2988
RMK AO2 TSB1052B1053 PRESRR P0001 T02280222





000
SAUS44 KEWX 241059
MTRATT
SPECI KATT 241058Z AUTO VRB04KT 2 1/2SM -TSRA BR BKN005 OVC090 23/22
A2985 RMK AO2 TSB52B53 P0000 T02280217





000
SAUS44 KEWX 241052
MTRATT
METAR KATT 241051Z AUTO 16004KT 2 1/2SM -RA BR OVC005 23/22 A2986
RMK AO2 RAE0958B16 SLP098 P0000 T02280222





000
SAUS44 KEWX 241042
MTRATT
SPECI KATT 241041Z AUTO 13005KT 2 1/2SM -RA BR OVC006 23/22 A2984
RMK AO2 RAE0958B16 P0000 T02280222





000
SAUS44 KEWX 241030
MTRATT
SPECI KATT 241029Z AUTO 16007KT 140V200 3SM -RA BR OVC006 23/22
A2987 RMK AO2 RAE0958B16 P0000 T02280222





000
SAUS44 KEWX 241030
MTRATT
SPECI KATT 241029Z AUTO 16007KT 140V200 3SM -RA BR OVC006 23/22
A2987 RMK AO2 RAE0958B16 P0000 T02280222





000
SAUS44 KEWX 241007
MTRATT
SPECI KATT 241006Z AUTO 16004KT 2 1/2SM BR BKN008 BKN100 23/22 A2988
RMK AO2 RAE0958 P0000 T02280217





000
SAUS44 KEWX 241003
MTRATT
SPECI KATT 241002Z AUTO 16004KT 3SM BR SCT008 BKN100 BKN110 23/22
A2988 RMK AO2 RAE0958 PRESRR P0000 T02280217





000
SAUS44 KEWX 241003
MTRATT
SPECI KATT 241002Z AUTO 16004KT 3SM BR SCT008 BKN100 BKN110 23/22
A2988 RMK AO2 RAE0958 PRESRR P0000 T02280217





000
SAUS44 KEWX 240954
MTRATT
METAR KATT 240951Z AUTO 11003KT 3SM -RA BR SCT110 23/22 A2985 RMK
AO2 RAB01 SLP096 P0001 T02280217





000
SAUS44 KEWX 240852
MTRATT
METAR KATT 240851Z AUTO 15005KT 6SM BR FEW013 BKN120 24/22 A2989 RMK
AO2 SLP107 T02390217 55004





000
SAUS44 KEWX 240840
MTRATT
SPECI KATT 240839Z AUTO VRB04KT 6SM BR SCT010 SCT015 24/22 A2989 RMK
AO2 T02390217





000
SAUS44 KEWX 240800
MTRATT
SPECI KATT 240758Z AUTO 16007KT 5SM BR OVC010 24/22 A2988 RMK AO2
CIG 007V014 T02390222





000
SAUS44 KEWX 240752
MTRATT
METAR KATT 240751Z AUTO VRB05G14KT 5SM BR BKN008 OVC012 24/22 A2987
RMK AO2 PRESFR SLP103 T02390222





000
SAUS44 KEWX 240752
MTRATT
METAR KATT 240751Z AUTO VRB05G14KT 5SM BR BKN008 OVC012 24/22 A2987
RMK AO2 PRESFR SLP103 T02390222





000
SAUS44 KEWX 240710
MTRATT
SPECI KATT 240709Z AUTO 17005KT 6SM BR OVC008 24/22 A2987 RMK AO2
CIG 007V012 T02390222





000
SAUS44 KEWX 240652
MTRATT
METAR KATT 240651Z AUTO 15007KT 8SM BKN010 OVC018 24/22 A2986 RMK
AO2 CIG 009V014 PRESFR SLP100 T02390217





000
SAUS44 KEWX 240652
MTRATT
METAR KATT 240651Z AUTO 15007KT 8SM BKN010 OVC018 24/22 A2986 RMK
AO2 CIG 009V014 PRESFR SLP100 T02390217





000
SAUS44 KEWX 240645
MTRATT
SPECI KATT 240644Z AUTO 15005KT 9SM BKN013 OVC020 24/22 A2987 RMK
AO2 PRESFR T02390217





000
SAUS44 KEWX 240645
MTRATT
SPECI KATT 240644Z AUTO 15005KT 9SM BKN013 OVC020 24/22 A2987 RMK
AO2 PRESFR T02390217





000
SAUS44 KEWX 240635
MTRATT
SPECI KATT 240634Z AUTO 18004KT 9SM BKN017 24/21 A2989 RMK AO2
T02390211





000
SAUS44 KEWX 240635
MTRATT
SPECI KATT 240634Z AUTO 18004KT 9SM BKN017 24/21 A2989 RMK AO2
T02390211





000
SAUS44 KEWX 240553
MTRATT
METAR KATT 240551Z AUTO 00000KT 10SM CLR 24/21 A2990 RMK AO2 SLP113
T02390211 10278 20239 402940200 50008





000
SAUS44 KEWX 240553
MTRATT
METAR KATT 240551Z AUTO 00000KT 10SM CLR 24/21 A2990 RMK AO2 SLP113
T02390211 10278 20239 402940200 50008





000
SAUS44 KEWX 240453
MTRATT
METAR KATT 240451Z AUTO 16003KT 10SM CLR 24/21 A2991 RMK AO2 SLP116
T02440211





000
SAUS44 KEWX 240352
MTRATT
METAR KATT 240351Z AUTO 13003KT 10SM CLR 24/21 A2988 RMK AO2 SLP109
T02440211





000
SAUS44 KEWX 240352
MTRATT
METAR KATT 240351Z AUTO 13003KT 10SM CLR 24/21 A2988 RMK AO2 SLP109
T02440211





000
SAUS44 KEWX 240252
MTRATT
METAR KATT 240251Z AUTO 16004KT 10SM CLR 25/21 A2987 RMK AO2 SLP106
T02500211 53004





000
SAUS44 KEWX 240252
MTRATT
METAR KATT 240251Z AUTO 16004KT 10SM CLR 25/21 A2987 RMK AO2 SLP106
T02500211 53004





000
SAUS44 KEWX 240152
MTRATT
METAR KATT 240151Z AUTO 13005KT 10SM CLR 26/22 A2987 RMK AO2 SLP103
T02560217





000
SAUS44 KEWX 240122
MTRATT
SPECI KATT 240120Z AUTO 13005KT 10SM SCT027 SCT036 26/22 A2987 RMK
AO2 T02610217





000
SAUS44 KEWX 240112
MTRATT
SPECI KATT 240110Z AUTO 13005KT 10SM BKN027 BKN037 26/22 A2987 RMK
AO2 T02610217





000
SAUS44 KEWX 240112
MTRATT
SPECI KATT 240110Z AUTO 13005KT 10SM BKN027 BKN037 26/22 A2987 RMK
AO2 T02610217





000
SAUS44 KEWX 240052
MTRATT
METAR KATT 240051Z AUTO VRB04KT 10SM SCT027 BKN036 OVC044 27/22
A2987 RMK AO2 SLP104 T02670217





000
SAUS44 KEWX 240052
MTRATT
METAR KATT 240051Z AUTO VRB04KT 10SM SCT027 BKN036 OVC044 27/22
A2987 RMK AO2 SLP104 T02670217





000
SAUS44 KEWX 240044
MTRATT
SPECI KATT 240042Z AUTO 11005KT 10SM SCT027 BKN033 BKN042 27/22
A2986 RMK AO2 T02670217





000
SAUS44 KEWX 240044
MTRATT
SPECI KATT 240042Z AUTO 11005KT 10SM SCT027 BKN033 BKN042 27/22
A2986 RMK AO2 T02670217





000
SAUS44 KEWX 240026
MTRATT
SPECI KATT 240025Z AUTO 13005KT 10SM BKN028 BKN037 27/22 A2986 RMK
AO2 T02720217





000
SAUS44 KEWX 232353
MTRATT
METAR KATT 232351Z AUTO 00000KT 10SM BKN037 28/22 A2986 RMK AO2
SLP102 T02780222 10294 20256 55001





000
SAUS44 KEWX 232353
MTRATT
METAR KATT 232351Z AUTO 00000KT 10SM BKN037 28/22 A2986 RMK AO2
SLP102 T02780222 10294 20256 55001





000
SAUS44 KEWX 232252
MTRATT
METAR KATT 232251Z AUTO VRB04KT 10SM CLR 28/22 A2986 RMK AO2 SLP098
T02780217





000
SAUS44 KEWX 232152
MTRATT
METAR KATT 232151Z AUTO 16007KT 10SM SCT026 28/22 A2985 RMK AO2
SLP097 T02830222





000
SAUS44 KEWX 232133
MTRATT
SPECI KATT 232131Z AUTO 18007KT 150V230 9SM BKN025 28/22 A2985 RMK
AO2 T02830222





000
SAUS44 KEWX 232133
MTRATT
SPECI KATT 232131Z AUTO 18007KT 150V230 9SM BKN025 28/22 A2985 RMK
AO2 T02830222





000
SAUS44 KEWX 232052
MTRATT
METAR KATT 232051Z AUTO VRB04KT 10SM FEW023 28/22 A2987 RMK AO2
SLP102 T02830222 56017





000
SAUS44 KEWX 232013
MTRATT
SPECI KATT 232012Z AUTO VRB03KT 8SM SCT020 28/22 A2987 RMK AO2
T02830222





000
SAUS44 KEWX 231952
MTRATT
METAR KATT 231951Z AUTO VRB05KT 8SM BKN020 28/22 A2988 RMK AO2
SLP107 T02780222





000
SAUS44 KEWX 231852
MTRATT
METAR KATT 231851Z AUTO VRB05KT 10SM OVC016 26/22 A2989 RMK AO2
SLP113 T02610217





000
SAUS44 KEWX 231852
MTRATT
METAR KATT 231851Z AUTO VRB05KT 10SM OVC016 26/22 A2989 RMK AO2
SLP113 T02610217





000
SAUS44 KEWX 231752
MTRATT
METAR KATT 231751Z AUTO 17005KT 10SM OVC016 26/22 A2992 RMK AO2
SLP120 T02560217 10261 20206 58008





000
SAUS44 KEWX 231652
MTRATT
METAR KATT 231651Z AUTO VRB03KT 10SM OVC012 24/21 A2993 RMK AO2
SLP125 T02440211





000
SAUS44 KEWX 231637
MTRATT
SPECI KATT 231635Z AUTO 00000KT 10SM BKN010 OVC018 25/21 A2993 RMK
AO2 T02500211





000
SAUS44 KEWX 231552
MTRATT
METAR KATT 231551Z AUTO 00000KT 7SM OVC006 23/21 A2994 RMK AO2
SLP129 T02280211





000
SAUS44 KEWX 231530
MTRATT
SPECI KATT 231529Z AUTO VRB03KT 6SM BR OVC005 22/21 A2994 RMK AO2
T02220211





000
SAUS44 KEWX 231530
MTRATT
SPECI KATT 231529Z AUTO VRB03KT 6SM BR OVC005 22/21 A2994 RMK AO2
T02220211





000
SAUS44 KEWX 231452
MTRATT
METAR KATT 231451Z AUTO VRB03KT 5SM BR OVC004 21/21 A2994 RMK AO2
SLP130 T02110206 51018





000
SAUS44 KEWX 231452
MTRATT
METAR KATT 231451Z AUTO VRB03KT 5SM BR OVC004 21/21 A2994 RMK AO2
SLP130 T02110206 51018





000
SAUS44 KEWX 231428 COR
MTRATT
SPECI KATT 231423Z AUTO VRB03KT 4SM BR OVC004 21/21 A2994 RMK AO2
T02110206





000
SAUS44 KEWX 231426 COR
MTRATT
SPECI KATT 231423Z AUTO VRB03KT 4SM BR OVC004 21/21 A2994 RMK AO2
T02110206





000
SAUS44 KEWX 231425 COR
MTRATT
SPECI KATT 231423Z AUTO VRB03KT 4SM BR OVC004 21/21 A2994 RMK AO2
T02110206





000
SAUS44 KEWX 231425 COR
MTRATT
SPECI KATT 231423Z AUTO VRB03KT 4SM BR OVC004 21/21 A2994 RMK AO2
T02110206





000
SAUS44 KEWX 231424
MTRATT
SPECI KATT 231423Z AUTO VRB03KT 4SM BR OVC004 21/21 A2994 RMK AO2
T02110206





000
SAUS44 KEWX 231424
MTRATT
SPECI KATT 231423Z AUTO VRB03KT 4SM BR OVC004 21/21 A2994 RMK AO2
T02110206





000
SAUS44 KEWX 231359
MTRATT
SPECI KATT 231357Z AUTO 00000KT 3SM BR BKN005 OVC010 21/21 A2994 RMK
AO2 T02060206





000
SAUS44 KEWX 231359
MTRATT
SPECI KATT 231357Z AUTO 00000KT 3SM BR BKN005 OVC010 21/21 A2994 RMK
AO2 T02060206





000
SAUS44 KEWX 231352
MTRATT
METAR KATT 231351Z AUTO 00000KT 2SM BR BKN003 OVC010 21/21 A2993 RMK
AO2 SLP126 T02060206





000
SAUS44 KEWX 231352
MTRATT
METAR KATT 231351Z AUTO 00000KT 2SM BR BKN003 OVC010 21/21 A2993 RMK
AO2 SLP126 T02060206





000
SAUS44 KEWX 231340
MTRATT
SPECI KATT 231339Z AUTO 00000KT 1 1/4SM BR BKN003 OVC010 21/21 A2993
RMK AO2 T02060206





000
SAUS44 KEWX 231252
MTRATT
METAR KATT 231251Z AUTO 03003KT 3/4SM BR OVC002 21/20 A2994 RMK AO2
SLP130 T02060200





000
SAUS44 KEWX 231252
MTRATT
METAR KATT 231251Z AUTO 03003KT 3/4SM BR OVC002 21/20 A2994 RMK AO2
SLP130 T02060200





000
SAUS44 KEWX 231212
MTRATT
SPECI KATT 231210Z AUTO 13004KT 3/4SM BR OVC002 20/20 A2990 RMK AO2
T02000200





000
SAUS44 KEWX 231212
MTRATT
SPECI KATT 231210Z AUTO 13004KT 3/4SM BR OVC002 20/20 A2990 RMK AO2
T02000200





000
SAUS44 KEWX 231152
MTRATT
METAR KATT 231151Z AUTO 12004KT 1SM BR OVC002 20/20 A2989 RMK AO2
SLP112 T02000200 10211 20200 53005





000
SAUS44 KEWX 231152
MTRATT
METAR KATT 231151Z AUTO 12004KT 1SM BR OVC002 20/20 A2989 RMK AO2
SLP112 T02000200 10211 20200 53005





000
SAUS44 KEWX 231141
MTRATT
SPECI KATT 231139Z AUTO 11004KT 1 1/2SM BR OVC003 20/20 A2988 RMK
AO2 T02000200





000
SAUS44 KEWX 231141
MTRATT
SPECI KATT 231139Z AUTO 11004KT 1 1/2SM BR OVC003 20/20 A2988 RMK
AO2 T02000200





000
SAUS44 KEWX 231133
MTRATT
SPECI KATT 231132Z AUTO 11003KT 2SM BR OVC003 20/20 A2989 RMK AO2
T02000200





000
SAUS44 KEWX 231053
MTRATT
METAR KATT 231051Z AUTO 00000KT 6SM BR OVC004 21/19 A2988 RMK AO2
SLP107 T02060194





000
SAUS44 KEWX 231053
MTRATT
METAR KATT 231051Z AUTO 00000KT 6SM BR OVC004 21/19 A2988 RMK AO2
SLP107 T02060194





000
SAUS44 KEWX 230952
MTRATT
METAR KATT 230951Z AUTO 00000KT 8SM OVC005 21/19 A2987 RMK AO2
SLP106 T02060194





000
SAUS44 KEWX 230952
MTRATT
METAR KATT 230951Z AUTO 00000KT 8SM OVC005 21/19 A2987 RMK AO2
SLP106 T02060194





000
SAUS44 KEWX 230853
MTRATT
METAR KATT 230851Z AUTO VRB03KT 10SM OVC007 21/19 A2987 RMK AO2
SLP106 T02060194 55006





000
SAUS44 KEWX 230853
MTRATT
METAR KATT 230851Z AUTO VRB03KT 10SM OVC007 21/19 A2987 RMK AO2
SLP106 T02060194 55006





000
SAUS44 KEWX 230752
MTRATT
METAR KATT 230751Z AUTO VRB04KT 10SM OVC009 21/19 A2987 RMK AO2
SLP104 T02060189





000
SAUS44 KEWX 230744
MTRATT
SPECI KATT 230743Z AUTO VRB05KT 10SM OVC009 21/19 A2987 RMK AO2
T02060189





000
SAUS44 KEWX 230719
MTRATT
SPECI KATT 230717Z AUTO 14005KT 10SM BKN010 OVC014 21/19 A2988 RMK
AO2 CIG 009V013 T02110189





000
SAUS44 KEWX 230652
MTRATT
METAR KATT 230651Z AUTO 12005KT 10SM OVC009 21/19 A2988 RMK AO2
SLP107 T02110189





000
SAUS44 KEWX 230652
MTRATT
METAR KATT 230651Z AUTO 12005KT 10SM OVC009 21/19 A2988 RMK AO2
SLP107 T02110189





000
SAUS44 KEWX 230620
MTRATT
SPECI KATT 230618Z AUTO 14005KT 10SM OVC009 21/19 A2989 RMK AO2
T02110189





000
SAUS44 KEWX 230620
MTRATT
SPECI KATT 230618Z AUTO 14005KT 10SM OVC009 21/19 A2989 RMK AO2
T02110189





000
SAUS44 KEWX 230553
MTRATT
METAR KATT 230551Z AUTO 14005KT 10SM OVC010 21/19 A2989 RMK AO2
SLP111 T02110189 10233 20211 402720194 55000





000
SAUS44 KEWX 230553
MTRATT
METAR KATT 230551Z AUTO 14005KT 10SM OVC010 21/19 A2989 RMK AO2
SLP111 T02110189 10233 20211 402720194 55000





000
SAUS44 KEWX 230452
MTRATT
METAR KATT 230451Z AUTO 12007KT 10SM BKN012 OVC021 22/18 A2989 RMK
AO2 SLP111 T02170183





000
SAUS44 KEWX 230450
MTRATT
SPECI KATT 230449Z AUTO 13006KT 10SM BKN012 OVC026 22/18 A2989 RMK
AO2





000
SAUS44 KEWX 230450
MTRATT
SPECI KATT 230449Z AUTO 13006KT 10SM BKN012 OVC026 22/18 A2989 RMK
AO2





000
SAUS44 KEWX 230406
MTRATT
SPECI KATT 230405Z AUTO 14006KT 10SM SCT013 SCT019 OVC029 22/18
A2989 RMK AO2 T02170178





000
SAUS44 KEWX 230353
MTRATT
METAR KATT 230351Z AUTO 13005KT 10SM BKN013 OVC026 22/18 A2989 RMK
AO2 SLP112 T02170178





000
SAUS44 KEWX 230252
MTRATT
METAR KATT 230251Z AUTO VRB04KT 10SM OVC014 22/18 A2988 RMK AO2
SLP108 T02220183 53014





000
SAUS44 KEWX 230252
MTRATT
METAR KATT 230251Z AUTO VRB04KT 10SM OVC014 22/18 A2988 RMK AO2
SLP108 T02220183 53014





000
SAUS44 KEWX 230221
MTRATT
SPECI KATT 230220Z AUTO 10004KT 10SM OVC014 22/18 A2987 RMK AO2
T02220183





000
SAUS44 KEWX 230153
MTRATT
METAR KATT 230151Z AUTO 12004KT 10SM OVC015 22/19 A2986 RMK AO2
SLP104 T02220189





000
SAUS44 KEWX 230052
MTRATT
METAR KATT 230051Z AUTO 16005KT 10SM BKN021 BKN027 23/18 A2983 RMK
AO2 SLP092 T02280183





000
SAUS44 KEWX 230044
MTRATT
SPECI KATT 230043Z AUTO 16007KT 10SM BKN023 23/19 A2983 RMK AO2
T02280189





000
SAUS44 KEWX 230044
MTRATT
SPECI KATT 230043Z AUTO 16007KT 10SM BKN023 23/19 A2983 RMK AO2
T02280189





000
SAUS44 KEWX 222352
MTRATT
METAR KATT 222351Z AUTO 13008KT 10SM CLR 23/18 A2984 RMK AO2 SLP095
60000 T02330183 10272 20233 58002





000
SAUS44 KEWX 222352
MTRATT
METAR KATT 222351Z AUTO 13008KT 10SM CLR 23/18 A2984 RMK AO2 SLP095
60000 T02330183 10272 20233 58002





000
SAUS44 KEWX 222252
MTRATT
METAR KATT 222251Z AUTO 15011G20KT 10SM FEW021 SCT036 SCT043 24/19
A2985 RMK AO2 RAB11E21 SLP099 P0000 T02440194





000
SAUS44 KEWX 222252
MTRATT
METAR KATT 222251Z AUTO 15011G20KT 10SM FEW021 SCT036 SCT043 24/19
A2985 RMK AO2 RAB11E21 SLP099 P0000 T02440194





000
SAUS44 KEWX 222249
MTRATT
SPECI KATT 222248Z AUTO 16013G20KT 10SM SCT021 24/19 A2985 RMK AO2
RAB11E21 P0000





000
SAUS44 KEWX 222152
MTRATT
METAR KATT 222151Z AUTO 12006KT 10SM OVC025 24/20 A2984 RMK AO2
SLP096 T02440200





000
SAUS44 KEWX 222152
MTRATT
METAR KATT 222151Z AUTO 12006KT 10SM OVC025 24/20 A2984 RMK AO2
SLP096 T02440200





000
SAUS44 KEWX 222052
MTRATT
METAR KATT 222051Z AUTO 16008KT 10SM BKN023 OVC047 25/20 A2986 RMK
AO2 SLP102 T02500200 56018





000
SAUS44 KEWX 221952
MTRATT
METAR KATT 221951Z AUTO 16007KT 10SM OVC025 24/19 A2988 RMK AO2
SLP107 T02440194





000
SAUS44 KEWX 221952
MTRATT
METAR KATT 221951Z AUTO 16007KT 10SM OVC025 24/19 A2988 RMK AO2
SLP107 T02440194





000
SAUS44 KEWX 221852
MTRATT
METAR KATT 221851Z AUTO VRB06KT 10SM OVC026 26/19 A2989 RMK AO2
SLP111 T02610194





000
SAUS44 KEWX 221752
MTRATT
METAR KATT 221751Z AUTO 16006KT 10SM OVC026 25/18 A2991 RMK AO2
SLP120 T02500183 10250 20194 58009





000
SAUS44 KEWX 221734
MTRATT
SPECI KATT 221732Z AUTO 19006KT 10SM BKN028 OVC050 24/18 A2993 RMK
AO2 T02440183





000
SAUS44 KEWX 221652
MTRATT
METAR KATT 221651Z AUTO 16005KT 10SM FEW021 BKN035 OVC050 24/19
A2995 RMK AO2 SLP131 T02440189





000
SAUS44 KEWX 221552
MTRATT
METAR KATT 221551Z AUTO 17005KT 10SM SCT014 BKN033 OVC047 23/19
A2995 RMK AO2 SLP133 T02280189





000
SAUS44 KEWX 221452
MTRATT
METAR KATT 221451Z AUTO VRB04KT 9SM BKN013 OVC040 22/19 A2994 RMK
AO2 SLP130 T02170189 51006





000
SAUS44 KEWX 221452
MTRATT
METAR KATT 221451Z AUTO VRB04KT 9SM BKN013 OVC040 22/19 A2994 RMK
AO2 SLP130 T02170189 51006





000
SAUS44 KEWX 221420
MTRATT
SPECI KATT 221418Z AUTO 13004KT 8SM BKN011 BKN017 OVC036 21/18 A2994
RMK AO2 T02110183





000
SAUS44 KEWX 221403
MTRATT
SPECI KATT 221401Z AUTO 13003KT 8SM SCT011 BKN016 OVC036 21/18 A2994
RMK AO2 T02060183





000
SAUS44 KEWX 221403
MTRATT
SPECI KATT 221401Z AUTO 13003KT 8SM SCT011 BKN016 OVC036 21/18 A2994
RMK AO2 T02060183





000
SAUS44 KEWX 221353
MTRATT
METAR KATT 221351Z AUTO 14004KT 7SM BKN010 BKN017 OVC036 21/18 A2994
RMK AO2 SLP129 T02060183





000
SAUS44 KEWX 221353
MTRATT
METAR KATT 221351Z AUTO 14004KT 7SM BKN010 BKN017 OVC036 21/18 A2994
RMK AO2 SLP129 T02060183





000
SAUS44 KEWX 221300
MTRATT
SPECI KATT 221259Z AUTO 16004KT 7SM OVC010 20/18 A2994 RMK AO2
T02000183





000
SAUS44 KEWX 221300
MTRATT
SPECI KATT 221259Z AUTO 16004KT 7SM OVC010 20/18 A2994 RMK AO2
T02000183





000
SAUS44 KEWX 221252
MTRATT
METAR KATT 221251Z AUTO 15004KT 7SM BKN008 OVC015 20/18 A2994 RMK
AO2 CIG 007V012 SLP127 T02000183





000
SAUS44 KEWX 221252
MTRATT
METAR KATT 221251Z AUTO 15004KT 7SM BKN008 OVC015 20/18 A2994 RMK
AO2 CIG 007V012 SLP127 T02000183





    US Dept of Commerce
    National Oceanic and Atmospheric Administration
    National Weather Service
    1325 East West Highway
    Silver Spring, MD 20910
    Page Author: NWS Internet Services Team
Disclaimer
Information Quality
Credits
Glossary
Privacy Policy
Freedom of Information Act (FOIA)
About Us
Career Opportunities